Gladwin, MI (48624)

2:49 PM EDT on August 04, 2015 (GMT -0400)
Mills, North Midland County | | Change Station
CLOSE
Current Station
Personal Weather Station
Location: Midland, MI
Elevation: 682 ft
Nearby Weather Stations

Elev 682 ft 43.81 °N, 84.23 °W | Updated 58 seconds ago

Overcast
Overcast
71.9 °F
Feels Like 75 °F
N
11.5
Wind Variable Wind from South
Gusts 11.5 mph

Today
High -- | Low -- °F
--% Chance of Precip.
Yesterday
High -- | Low -- °F
Precip. -- in
6:28 AM 8:58 PM
Waning Gibbous, 75% visible
Pressure 29.91 in
Visibility 10.0 miles
Clouds Mostly Cloudy 9000 ft
Heat Index 75 °F
Dew Point 61 °F
Humidity 69%
Rainfall 0.00 in
Snow Depth Not available.
UV 6 out of 12
Pollen 6.40 out of 12
Air Quality Not available.
Flu Activity Not available.
METAR KHTL 041753Z AUTO 27009KT 10SM BKN090 21/14 A2991 RMK AO2 RAB08E20 SLP129 P0000 60000 T02110144 10222 20167 58001

More Conditions Fewer Conditions

Pressure 29.91 in
Visibility 10.0 miles
Clouds Mostly Cloudy 9000 ft
Heat Index 75 °F
Dew Point 61 °F
Humidity 69%
Rainfall 0.00 in
Snow Depth Not available.
UV 6 out of 12
Pollen 6.40 out of 12
Air Quality Not available.
Flu Activity Not available.
METAR KHTL 041753Z AUTO 27009KT 10SM BKN090 21/14 A2991 RMK AO2 RAB08E20 SLP129 P0000 60000 T02110144 10222 20167 58001

More Conditions Fewer Conditions

Nowcast | as of 1:00 PM EDT on August 4, 2015

At 2 PM...mostly cloudy. Scattered showers. Temperature 71. West winds 12 mph. At 4 PM...mostly cloudy. Scattered showers. Temperature 71. Northwest winds 13 mph. At 6 PM...partly cloudy. Scattered showers. Temperature 70. Northwest winds 12 mph. At 8 PM...partly cloudy. Temperature 67. Northwest winds 8 mph.

×

10-Day Weather Forecast

×

Almanac

Astronomy

Aug. 04, 2015 Rise Set
Actual Time
Civil Twilight
Nautical Twilight
Astronomical Twilight
Moon
Length of Visible Light
Length of Day
Tomorrow will be .
, % of the Moon is Illuminated

Today's Extremes

State Highs State Lows

Community

WunderPhotos

Upload Photos

1,843,937 photos uploaded!

WunderBlogs® & News

Nearby

Air Quality

  Air Quality AQ Index Pollutant
Not available.

Snow Depth

Station Depth Elevation

Earthquake Activity

City Distance Mag. Time & Date
Minimum magnitude displayed is 2.5.

Coastal Water Temperatures

Place Temperature

Stations

Nearby Weather Stations

Station Location Temp. Windchill Dew Point Humidity Wind Precip. Elev Updated Type